sensor_id;sensor_type;location;lat;lon;timestamp;pressure;altitude;pressure_sealevel;temperature;humidity
71504;BME280;59323;50.874;7.028;2023-03-13T00:02:06;100272.34;;;9.48;86.71
71504;BME280;59323;50.874;7.028;2023-03-13T00:04:32;100270.03;;;9.50;86.40
71504;BME280;59323;50.874;7.028;2023-03-13T00:06:57;100260.78;;;9.55;86.69
71504;BME280;59323;50.874;7.028;2023-03-13T00:09:22;100257.78;;;9.64;86.04
71504;BME280;59323;50.874;7.028;2023-03-13T00:11:48;100262.06;;;9.65;85.80
71504;BME280;59323;50.874;7.028;2023-03-13T00:14:13;100250.06;;;9.66;85.71
71504;BME280;59323;50.874;7.028;2023-03-13T00:16:38;100245.50;;;9.73;85.39
71504;BME280;59323;50.874;7.028;2023-03-13T00:19:05;100234.66;;;9.73;85.41
71504;BME280;59323;50.874;7.028;2023-03-13T00:21:31;100228.91;;;9.78;85.06
71504;BME280;59323;50.874;7.028;2023-03-13T00:23:58;100218.94;;;9.86;84.83
71504;BME280;59323;50.874;7.028;2023-03-13T00:26:25;100211.91;;;9.81;85.46
71504;BME280;59323;50.874;7.028;2023-03-13T00:28:51;100210.00;;;9.85;85.21
71504;BME280;59323;50.874;7.028;2023-03-13T00:31:22;100194.91;;;9.88;85.09
71504;BME280;59323;50.874;7.028;2023-03-13T00:33:50;100186.44;;;9.93;84.86
71504;BME280;59323;50.874;7.028;2023-03-13T00:36:45;100169.72;;;9.88;85.14
71504;BME280;59323;50.874;7.028;2023-03-13T00:39:11;100181.41;;;9.95;84.79
71504;BME280;59323;50.874;7.028;2023-03-13T00:41:36;100169.38;;;9.93;85.08
71504;BME280;59323;50.874;7.028;2023-03-13T00:44:05;100162.81;;;9.97;85.43
71504;BME280;59323;50.874;7.028;2023-03-13T00:46:30;100153.19;;;10.03;85.38
71504;BME280;59323;50.874;7.028;2023-03-13T00:48:56;100158.19;;;10.01;86.41
71504;BME280;59323;50.874;7.028;2023-03-13T00:51:22;100157.03;;;10.02;87.51
71504;BME280;59323;50.874;7.028;2023-03-13T00:53:48;100143.88;;;10.04;88.09
71504;BME280;59323;50.874;7.028;2023-03-13T00:56:15;100145.03;;;10.03;88.45
71504;BME280;59323;50.874;7.028;2023-03-13T00:58:43;100142.28;;;10.00;88.76
71504;BME280;59323;50.874;7.028;2023-03-13T01:01:10;100134.09;;;9.93;89.00
71504;BME280;59323;50.874;7.028;2023-03-13T01:03:36;100125.16;;;9.92;89.12
71504;BME280;59323;50.874;7.028;2023-03-13T01:06:04;100118.19;;;9.91;88.66
71504;BME280;59323;50.874;7.028;2023-03-13T01:08:30;100120.84;;;9.88;88.67
71504;BME280;59323;50.874;7.028;2023-03-13T01:11:05;100133.66;;;9.87;89.09
71504;BME280;59323;50.874;7.028;2023-03-13T01:13:31;100120.03;;;9.83;89.41
71504;BME280;59323;50.874;7.028;2023-03-13T01:16:04;100119.66;;;9.85;89.90
71504;BME280;59323;50.874;7.028;2023-03-13T01:18:30;100114.59;;;9.80;90.42
71504;BME280;59323;50.874;7.028;2023-03-13T01:20:56;100107.22;;;9.80;90.82
71504;BME280;59323;50.874;7.028;2023-03-13T01:23:21;100111.06;;;9.76;90.46
71504;BME280;59323;50.874;7.028;2023-03-13T01:25:47;100088.91;;;9.74;90.46
71504;BME280;59323;50.874;7.028;2023-03-13T01:28:12;100092.41;;;9.74;90.06
71504;BME280;59323;50.874;7.028;2023-03-13T01:30:37;100092.38;;;9.71;90.54
71504;BME280;59323;50.874;7.028;2023-03-13T01:33:03;100099.47;;;9.79;90.66
71504;BME280;59323;50.874;7.028;2023-03-13T01:35:28;100080.06;;;9.77;90.36
71504;BME280;59323;50.874;7.028;2023-03-13T01:37:53;100083.50;;;9.74;91.29
71504;BME280;59323;50.874;7.028;2023-03-13T01:40:19;100077.66;;;9.72;91.73
71504;BME280;59323;50.874;7.028;2023-03-13T01:42:51;100071.94;;;9.77;91.60
71504;BME280;59323;50.874;7.028;2023-03-13T01:51:51;100048.78;;;9.90;91.80
71504;BME280;59323;50.874;7.028;2023-03-13T01:54:24;100040.69;;;9.97;91.39
71504;BME280;59323;50.874;7.028;2023-03-13T01:56:54;100040.34;;;10.06;91.11
71504;BME280;59323;50.874;7.028;2023-03-13T01:59:27;100033.38;;;10.08;90.84
71504;BME280;59323;50.874;7.028;2023-03-13T02:01:57;100031.81;;;10.07;90.61
71504;BME280;59323;50.874;7.028;2023-03-13T02:04:23;100035.75;;;10.13;90.52
71504;BME280;59323;50.874;7.028;2023-03-13T02:06:53;100023.34;;;10.16;90.05
71504;BME280;59323;50.874;7.028;2023-03-13T02:09:23;100009.78;;;10.20;89.81
71504;BME280;59323;50.874;7.028;2023-03-13T02:12:25;99997.75;;;10.17;90.60
71504;BME280;59323;50.874;7.028;2023-03-13T02:14:54;99993.09;;;10.14;90.72
71504;BME280;59323;50.874;7.028;2023-03-13T02:17:21;99985.34;;;10.20;90.12
71504;BME280;59323;50.874;7.028;2023-03-13T02:19:49;99977.25;;;10.23;90.07
71504;BME280;59323;50.874;7.028;2023-03-13T02:22:30;99978.81;;;10.24;90.32
71504;BME280;59323;50.874;7.028;2023-03-13T02:25:03;99970.66;;;10.21;91.10
71504;BME280;59323;50.874;7.028;2023-03-13T02:27:30;99969.50;;;10.22;90.92
71504;BME280;59323;50.874;7.028;2023-03-13T02:29:57;99958.22;;;10.20;91.63
71504;BME280;59323;50.874;7.028;2023-03-13T02:32:24;99955.84;;;10.11;91.78
71504;BME280;59323;50.874;7.028;2023-03-13T02:34:53;99948.50;;;10.15;92.22
71504;BME280;59323;50.874;7.028;2023-03-13T02:37:20;99945.38;;;10.13;93.21
71504;BME280;59323;50.874;7.028;2023-03-13T02:39:49;99945.38;;;10.09;94.22
71504;BME280;59323;50.874;7.028;2023-03-13T02:42:17;99937.59;;;10.08;95.02
71504;BME280;59323;50.874;7.028;2023-03-13T02:44:45;99938.34;;;10.01;96.31
71504;BME280;59323;50.874;7.028;2023-03-13T02:47:11;99932.91;;;10.01;97.90
71504;BME280;59323;50.874;7.028;2023-03-13T02:49:36;99939.09;;;9.95;99.46
71504;BME280;59323;50.874;7.028;2023-03-13T02:52:23;99928.22;;;9.95;100.00
71504;BME280;59323;50.874;7.028;2023-03-13T02:54:52;99934.41;;;9.88;100.00
71504;BME280;59323;50.874;7.028;2023-03-13T02:57:19;99934.75;;;9.83;100.00
71504;BME280;59323;50.874;7.028;2023-03-13T02:59:44;99922.75;;;9.84;100.00
71504;BME280;59323;50.874;7.028;2023-03-13T03:02:09;99927.41;;;9.87;100.00
71504;BME280;59323;50.874;7.028;2023-03-13T03:04:35;99933.22;;;9.85;100.00
71504;BME280;59323;50.874;7.028;2023-03-13T03:07:00;99930.09;;;9.83;100.00
71504;BME280;59323;50.874;7.028;2023-03-13T03:09:25;99926.63;;;9.83;100.00
71504;BME280;59323;50.874;7.028;2023-03-13T03:11:51;99911.09;;;9.80;100.00
71504;BME280;59323;50.874;7.028;2023-03-13T03:14:16;99908.41;;;9.83;100.00
71504;BME280;59323;50.874;7.028;2023-03-13T03:16:41;99896.72;;;9.76;100.00
71504;BME280;59323;50.874;7.028;2023-03-13T03:19:07;99891.31;;;9.79;100.00
71504;BME280;59323;50.874;7.028;2023-03-13T03:21:33;99903.34;;;9.82;100.00
71504;BME280;59323;50.874;7.028;2023-03-13T03:23:59;99894.44;;;9.85;100.00
71504;BME280;59323;50.874;7.028;2023-03-13T03:26:25;99884.78;;;9.88;100.00
71504;BME280;59323;50.874;7.028;2023-03-13T03:28:50;99894.84;;;9.87;100.00
71504;BME280;59323;50.874;7.028;2023-03-13T03:31:16;99889.41;;;9.87;100.00
71504;BME280;59323;50.874;7.028;2023-03-13T03:33:42;99899.91;;;9.92;100.00
71504;BME280;59323;50.874;7.028;2023-03-13T03:36:14;99897.97;;;9.93;100.00
71504;BME280;59323;50.874;7.028;2023-03-13T03:38:41;99901.47;;;9.93;100.00
71504;BME280;59323;50.874;7.028;2023-03-13T03:41:08;99899.13;;;9.88;99.80
71504;BME280;59323;50.874;7.028;2023-03-13T03:43:34;99891.34;;;9.87;100.00
71504;BME280;59323;50.874;7.028;2023-03-13T03:45:59;99900.28;;;9.87;100.00
71504;BME280;59323;50.874;7.028;2023-03-13T03:48:28;99891.00;;;9.92;100.00
71504;BME280;59323;50.874;7.028;2023-03-13T03:50:53;99892.56;;;9.93;100.00
71504;BME280;59323;50.874;7.028;2023-03-13T03:53:19;99886.34;;;9.92;100.00
71504;BME280;59323;50.874;7.028;2023-03-13T03:55:44;99880.53;;;9.94;100.00
71504;BME280;59323;50.874;7.028;2023-03-13T03:58:10;99879.75;;;9.93;100.00
71504;BME280;59323;50.874;7.028;2023-03-13T04:00:39;99866.19;;;9.93;100.00
71504;BME280;59323;50.874;7.028;2023-03-13T04:03:07;99876.25;;;9.93;100.00
71504;BME280;59323;50.874;7.028;2023-03-13T04:05:32;99863.09;;;9.95;100.00
71504;BME280;59323;50.874;7.028;2023-03-13T04:07:57;99858.84;;;10.01;100.00
71504;BME280;59323;50.874;7.028;2023-03-13T04:10:22;99842.97;;;10.06;100.00
71504;BME280;59323;50.874;7.028;2023-03-13T04:12:48;99846.47;;;10.07;100.00
71504;BME280;59323;50.874;7.028;2023-03-13T04:15:13;99850.75;;;10.11;100.00
71504;BME280;59323;50.874;7.028;2023-03-13T04:17:38;99863.19;;;10.20;100.00
71504;BME280;59323;50.874;7.028;2023-03-13T04:20:04;99856.19;;;10.18;100.00
71504;BME280;59323;50.874;7.028;2023-03-13T04:22:30;99851.97;;;10.21;99.74
71504;BME280;59323;50.874;7.028;2023-03-13T04:24:56;99846.50;;;10.17;99.98
71504;BME280;59323;50.874;7.028;2023-03-13T04:27:21;99828.31;;;10.22;100.00
71504;BME280;59323;50.874;7.028;2023-03-13T04:29:46;99833.38;;;10.23;100.00
71504;BME280;59323;50.874;7.028;2023-03-13T04:32:12;99833.38;;;10.23;100.00
71504;BME280;59323;50.874;7.028;2023-03-13T04:34:37;99832.97;;;10.25;100.00
71504;BME280;59323;50.874;7.028;2023-03-13T04:37:02;99831.81;;;10.26;100.00
71504;BME280;59323;50.874;7.028;2023-03-13T04:39:28;99833.75;;;10.25;100.00
71504;BME280;59323;50.874;7.028;2023-03-13T04:41:54;99844.63;;;10.25;100.00
71504;BME280;59323;50.874;7.028;2023-03-13T04:44:20;99834.91;;;10.24;100.00
71504;BME280;59323;50.874;7.028;2023-03-13T04:46:46;99830.66;;;10.27;100.00
71504;BME280;59323;50.874;7.028;2023-03-13T04:49:12;99825.59;;;10.25;100.00
71504;BME280;59323;50.874;7.028;2023-03-13T04:51:39;99836.88;;;10.27;100.00
71504;BME280;59323;50.874;7.028;2023-03-13T04:54:04;99822.50;;;10.27;100.00
71504;BME280;59323;50.874;7.028;2023-03-13T04:56:29;99827.94;;;10.27;100.00
71504;BME280;59323;50.874;7.028;2023-03-13T04:58:55;99822.91;;;10.32;100.00
71504;BME280;59323;50.874;7.028;2023-03-13T05:01:20;99817.47;;;10.32;100.00
71504;BME280;59323;50.874;7.028;2023-03-13T05:03:45;99812.84;;;10.36;100.00
71504;BME280;59323;50.874;7.028;2023-03-13T05:06:11;99806.63;;;10.39;100.00
71504;BME280;59323;50.874;7.028;2023-03-13T05:08:37;99804.34;;;10.48;100.00
71504;BME280;59323;50.874;7.028;2023-03-13T05:11:03;99794.25;;;10.49;100.00
71504;BME280;59323;50.874;7.028;2023-03-13T05:13:29;99804.75;;;10.54;100.00
71504;BME280;59323;50.874;7.028;2023-03-13T05:15:54;99787.66;;;10.64;100.00
71504;BME280;59323;50.874;7.028;2023-03-13T05:18:20;99798.16;;;10.66;100.00
71504;BME280;59323;50.874;7.028;2023-03-13T05:20:45;99795.03;;;10.67;100.00
71504;BME280;59323;50.874;7.028;2023-03-13T05:23:10;99805.53;;;10.69;100.00
71504;BME280;59323;50.874;7.028;2023-03-13T05:25:36;99789.59;;;10.71;100.00
71504;BME280;59323;50.874;7.028;2023-03-13T05:28:02;99805.53;;;10.72;100.00
71504;BME280;59323;50.874;7.028;2023-03-13T05:30:27;99804.34;;;10.73;100.00
71504;BME280;59323;50.874;7.028;2023-03-13T05:32:53;99794.28;;;10.77;100.00
71504;BME280;59323;50.874;7.028;2023-03-13T05:35:18;99793.50;;;10.88;100.00
71504;BME280;59323;50.874;7.028;2023-03-13T05:37:43;99795.03;;;10.92;100.00
71504;BME280;59323;50.874;7.028;2023-03-13T05:40:10;99783.38;;;10.99;100.00
71504;BME280;59323;50.874;7.028;2023-03-13T05:42:36;99789.97;;;11.01;100.00
71504;BME280;59323;50.874;7.028;2023-03-13T05:45:01;99783.38;;;11.02;100.00
71504;BME280;59323;50.874;7.028;2023-03-13T05:47:27;99796.22;;;11.05;100.00
71504;BME280;59323;50.874;7.028;2023-03-13T05:49:56;99795.81;;;11.07;100.00
71504;BME280;59323;50.874;7.028;2023-03-13T05:52:21;99783.00;;;11.07;100.00
71504;BME280;59323;50.874;7.028;2023-03-13T05:54:47;99787.28;;;11.08;100.00
71504;BME280;59323;50.874;7.028;2023-03-13T05:57:12;99779.50;;;11.10;100.00
71504;BME280;59323;50.874;7.028;2023-03-13T05:59:37;99763.59;;;11.13;100.00
71504;BME280;59323;50.874;7.028;2023-03-13T06:02:03;99770.19;;;11.11;100.00
71504;BME280;59323;50.874;7.028;2023-03-13T06:04:28;99763.59;;;11.13;100.00
71504;BME280;59323;50.874;7.028;2023-03-13T06:06:53;99769.00;;;11.23;100.00
71504;BME280;59323;50.874;7.028;2023-03-13T06:09:19;99783.75;;;11.29;100.00
71504;BME280;59323;50.874;7.028;2023-03-13T06:11:44;99776.34;;;11.33;99.22
71504;BME280;59323;50.874;7.028;2023-03-13T06:14:10;99764.28;;;11.38;99.57
71504;BME280;59323;50.874;7.028;2023-03-13T06:16:35;99772.81;;;11.43;98.61
71504;BME280;59323;50.874;7.028;2023-03-13T06:19:00;99767.75;;;11.53;98.30
71504;BME280;59323;50.874;7.028;2023-03-13T06:21:26;99782.91;;;11.50;98.81
71504;BME280;59323;50.874;7.028;2023-03-13T06:23:53;99787.16;;;11.55;98.81
71504;BME280;59323;50.874;7.028;2023-03-13T06:26:18;99797.28;;;11.54;98.68
71504;BME280;59323;50.874;7.028;2023-03-13T06:28:44;99799.59;;;11.56;98.89
71504;BME280;59323;50.874;7.028;2023-03-13T06:31:09;99793.75;;;11.57;98.68
71504;BME280;59323;50.874;7.028;2023-03-13T06:33:35;99798.81;;;11.55;98.03
71504;BME280;59323;50.874;7.028;2023-03-13T06:36:02;99796.88;;;11.56;98.44
71504;BME280;59323;50.874;7.028;2023-03-13T06:38:28;99798.03;;;11.62;98.92
71504;BME280;59323;50.874;7.028;2023-03-13T06:40:54;99807.34;;;11.64;97.82
71504;BME280;59323;50.874;7.028;2023-03-13T06:43:19;99807.34;;;11.64;97.66
71504;BME280;59323;50.874;7.028;2023-03-13T06:45:45;99804.22;;;11.73;97.50
71504;BME280;59323;50.874;7.028;2023-03-13T06:48:10;99811.22;;;11.74;97.55
71504;BME280;59323;50.874;7.028;2023-03-13T06:50:39;99808.88;;;11.76;97.48
71504;BME280;59323;50.874;7.028;2023-03-13T06:53:05;99806.56;;;11.78;96.71
71504;BME280;59323;50.874;7.028;2023-03-13T06:55:31;99815.50;;;11.75;97.13
71504;BME280;59323;50.874;7.028;2023-03-13T06:57:57;99810.06;;;11.75;96.72
71504;BME280;59323;50.874;7.028;2023-03-13T07:00:23;99821.34;;;11.73;96.78
71504;BME280;59323;50.874;7.028;2023-03-13T07:02:49;99810.84;;;11.75;96.78
71504;BME280;59323;50.874;7.028;2023-03-13T07:05:15;99807.34;;;11.82;96.46
71504;BME280;59323;50.874;7.028;2023-03-13T07:07:41;99815.50;;;11.82;96.66
71504;BME280;59323;50.874;7.028;2023-03-13T07:10:07;99818.22;;;11.86;96.54
71504;BME280;59323;50.874;7.028;2023-03-13T07:12:34;99824.81;;;11.88;96.19
71504;BME280;59323;50.874;7.028;2023-03-13T07:15:00;99824.81;;;11.88;96.39
71504;BME280;59323;50.874;7.028;2023-03-13T07:17:25;99829.47;;;11.91;95.74
71504;BME280;59323;50.874;7.028;2023-03-13T07:19:50;99818.19;;;11.93;95.42
71504;BME280;59323;50.874;7.028;2023-03-13T07:22:16;99812.72;;;11.96;94.35
71504;BME280;59323;50.874;7.028;2023-03-13T07:24:41;99821.25;;;12.02;94.65
71504;BME280;59323;50.874;7.028;2023-03-13T07:27:06;99822.81;;;12.03;94.48
71504;BME280;59323;50.874;7.028;2023-03-13T07:29:32;99827.84;;;12.04;93.84
71504;BME280;59323;50.874;7.028;2023-03-13T07:31:57;99830.97;;;12.06;93.48
71504;BME280;59323;50.874;7.028;2023-03-13T07:34:22;99827.44;;;12.10;93.34
71504;BME280;59323;50.874;7.028;2023-03-13T07:36:48;99827.00;;;12.18;92.91
71504;BME280;59323;50.874;7.028;2023-03-13T07:39:13;99831.22;;;12.30;91.51
71504;BME280;59323;50.874;7.028;2023-03-13T07:41:38;99836.66;;;12.37;91.06
71504;BME280;59323;50.874;7.028;2023-03-13T07:44:04;99815.22;;;12.43;90.63
71504;BME280;59323;50.874;7.028;2023-03-13T07:46:29;99821.38;;;12.54;89.38
71504;BME280;59323;50.874;7.028;2023-03-13T07:48:54;99800.66;;;12.63;88.55
71504;BME280;59323;50.874;7.028;2023-03-13T07:51:22;99785.44;;;12.69;88.41
71504;BME280;59323;50.874;7.028;2023-03-13T07:53:48;99790.78;;;12.80;87.63
71504;BME280;59323;50.874;7.028;2023-03-13T07:56:16;99781.00;;;12.86;87.62
71504;BME280;59323;50.874;7.028;2023-03-13T07:58:46;99774.34;;;12.91;86.67
71504;BME280;59323;50.874;7.028;2023-03-13T08:01:17;99779.41;;;12.92;86.59
71504;BME280;59323;50.874;7.028;2023-03-13T08:03:43;99779.78;;;12.91;85.86
71504;BME280;59323;50.874;7.028;2023-03-13T08:06:12;99779.34;;;12.96;85.33
71504;BME280;59323;50.874;7.028;2023-03-13T08:08:38;99772.31;;;12.98;85.01
71504;BME280;59323;50.874;7.028;2023-03-13T08:11:06;99774.28;;;12.98;84.48
71504;BME280;59323;50.874;7.028;2023-03-13T08:13:33;99773.94;;;12.92;84.66
71504;BME280;59323;50.874;7.028;2023-03-13T08:16:03;99780.94;;;12.93;84.34
71504;BME280;59323;50.874;7.028;2023-03-13T08:18:29;99774.72;;;12.93;83.94
71504;BME280;59323;50.874;7.028;2023-03-13T08:21:00;99763.81;;;12.93;83.69
71504;BME280;59323;50.874;7.028;2023-03-13T08:23:26;99764.59;;;12.93;84.06
71504;BME280;59323;50.874;7.028;2023-03-13T08:25:52;99768.88;;;12.91;83.95
71504;BME280;59323;50.874;7.028;2023-03-13T08:28:17;99767.38;;;12.86;84.00
71504;BME280;59323;50.874;7.028;2023-03-13T08:30:43;99763.91;;;12.82;84.21
71504;BME280;59323;50.874;7.028;2023-03-13T08:33:08;99751.47;;;12.78;84.48
71504;BME280;59323;50.874;7.028;2023-03-13T08:35:33;99763.16;;;12.78;84.76
71504;BME280;59323;50.874;7.028;2023-03-13T08:37:59;99750.69;;;12.81;84.20
71504;BME280;59323;50.874;7.028;2023-03-13T08:40:24;99766.97;;;12.88;84.52
71504;BME280;59323;50.874;7.028;2023-03-13T08:42:49;99763.88;;;12.86;85.43
71504;BME280;59323;50.874;7.028;2023-03-13T08:45:15;99754.53;;;12.83;85.67
71504;BME280;59323;50.874;7.028;2023-03-13T08:47:40;99753.34;;;12.88;85.28
71504;BME280;59323;50.874;7.028;2023-03-13T08:50:06;99756.41;;;12.93;85.73
71504;BME280;59323;50.874;7.028;2023-03-13T08:52:31;99764.53;;;12.97;85.50
71504;BME280;59323;50.874;7.028;2023-03-13T08:54:56;99753.63;;;12.97;84.95
71504;BME280;59323;50.874;7.028;2023-03-13T08:57:22;99755.56;;;13.00;85.39
71504;BME280;59323;50.874;7.028;2023-03-13T08:59:47;99751.59;;;13.08;84.92
71504;BME280;59323;50.874;7.028;2023-03-13T09:02:13;99748.19;;;13.00;85.65
71504;BME280;59323;50.874;7.028;2023-03-13T09:04:44;99752.81;;;13.00;85.85
71504;BME280;59323;50.874;7.028;2023-03-13T09:07:12;99754.78;;;13.03;85.59
71504;BME280;59323;50.874;7.028;2023-03-13T09:09:38;99750.06;;;13.07;86.39
71504;BME280;59323;50.874;7.028;2023-03-13T09:12:03;99750.88;;;13.04;86.54
71504;BME280;59323;50.874;7.028;2023-03-13T09:14:29;99750.47;;;13.06;86.57
71504;BME280;59323;50.874;7.028;2023-03-13T09:16:54;99751.19;;;13.10;86.19
71504;BME280;59323;50.874;7.028;2023-03-13T09:19:20;99753.97;;;13.06;86.87
71504;BME280;59323;50.874;7.028;2023-03-13T09:21:45;99749.28;;;13.07;86.44
71504;BME280;59323;50.874;7.028;2023-03-13T09:24:13;99752.06;;;13.03;86.45
71504;BME280;59323;50.874;7.028;2023-03-13T09:26:38;99752.06;;;12.99;86.39
71504;BME280;59323;50.874;7.028;2023-03-13T09:29:04;99739.22;;;12.96;87.01
71504;BME280;59323;50.874;7.028;2023-03-13T09:31:31;99736.91;;;12.95;87.34
71504;BME280;59323;50.874;7.028;2023-03-13T09:34:00;99733.38;;;12.98;87.23
71504;BME280;59323;50.874;7.028;2023-03-13T09:36:27;99733.03;;;12.92;88.03
71504;BME280;59323;50.874;7.028;2023-03-13T09:38:55;99726.06;;;12.88;89.16
71504;BME280;59323;50.874;7.028;2023-03-13T09:41:42;99737.00;;;12.84;89.72
71504;BME280;59323;50.874;7.028;2023-03-13T09:44:17;99722.59;;;12.84;90.14
71504;BME280;59323;50.874;7.028;2023-03-13T09:47:11;99726.88;;;12.85;90.22
71504;BME280;59323;50.874;7.028;2023-03-13T09:49:56;99734.66;;;12.86;90.04
71504;BME280;59323;50.874;7.028;2023-03-13T09:52:29;99729.59;;;12.85;90.45
71504;BME280;59323;50.874;7.028;2023-03-13T09:57:34;99723.34;;;12.88;90.83
71504;BME280;59323;50.874;7.028;2023-03-13T10:00:05;99714.78;;;12.86;91.09
71504;BME280;59323;50.874;7.028;2023-03-13T10:02:36;99711.25;;;12.89;91.27
71504;BME280;59323;50.874;7.028;2023-03-13T10:05:29;99710.78;;;13.01;90.65
71504;BME280;59323;50.874;7.028;2023-03-13T10:10:46;99705.56;;;13.17;90.38
71504;BME280;59323;50.874;7.028;2023-03-13T10:15:55;99705.84;;;13.26;89.92
71504;BME280;59323;50.874;7.028;2023-03-13T10:18:23;99694.88;;;13.30;89.36
71504;BME280;59323;50.874;7.028;2023-03-13T10:20:52;99698.75;;;13.32;88.54
71504;BME280;59323;50.874;7.028;2023-03-13T10:23:21;99704.63;;;13.31;89.62
71504;BME280;59323;50.874;7.028;2023-03-13T10:25:51;99698.75;;;13.32;89.85
71504;BME280;59323;50.874;7.028;2023-03-13T10:28:17;99680.75;;;13.39;89.54
71504;BME280;59323;50.874;7.028;2023-03-13T10:30:53;99686.97;;;13.39;89.73
71504;BME280;59323;50.874;7.028;2023-03-13T10:33:25;99683.78;;;13.44;90.05
71504;BME280;59323;50.874;7.028;2023-03-13T10:38:34;99662.59;;;13.55;88.76
71504;BME280;59323;50.874;7.028;2023-03-13T10:41:16;99664.81;;;13.64;89.26
71504;BME280;59323;50.874;7.028;2023-03-13T10:43:54;99666.28;;;13.72;89.06
71504;BME280;59323;50.874;7.028;2023-03-13T10:46:24;99671.69;;;13.76;88.26
71504;BME280;59323;50.874;7.028;2023-03-13T10:48:53;99656.09;;;13.76;88.27
71504;BME280;59323;50.874;7.028;2023-03-13T10:51:23;99657.94;;;13.83;87.59
71504;BME280;59323;50.874;7.028;2023-03-13T10:53:49;99660.69;;;13.83;86.68
71504;BME280;59323;50.874;7.028;2023-03-13T10:56:24;99651.97;;;13.91;86.18
71504;BME280;59323;50.874;7.028;2023-03-13T10:58:52;99653.41;;;14.00;85.27
71504;BME280;59323;50.874;7.028;2023-03-13T11:01:28;99645.44;;;14.09;85.26
71504;BME280;59323;50.874;7.028;2023-03-13T11:03:58;99644.75;;;14.28;83.25
71504;BME280;59323;50.874;7.028;2023-03-13T11:06:34;99641.72;;;14.49;82.53
71504;BME280;59323;50.874;7.028;2023-03-13T11:11:47;99629.06;;;14.79;82.84
71504;BME280;59323;50.874;7.028;2023-03-13T11:14:21;99616.47;;;15.05;80.84
71504;BME280;59323;50.874;7.028;2023-03-13T11:17:03;99627.88;;;15.19;80.40
71504;BME280;59323;50.874;7.028;2023-03-13T11:19:38;99612.50;;;15.26;80.85
71504;BME280;59323;50.874;7.028;2023-03-13T11:32:54;99570.34;;;15.59;78.25
71504;BME280;59323;50.874;7.028;2023-03-13T11:35:21;99568.16;;;15.70;77.10
71504;BME280;59323;50.874;7.028;2023-03-13T11:37:54;99561.91;;;15.70;77.37
71504;BME280;59323;50.874;7.028;2023-03-13T11:40:31;99552.47;;;15.71;77.28
71504;BME280;59323;50.874;7.028;2023-03-13T11:54:01;99527.28;;;15.92;76.67
71504;BME280;59323;50.874;7.028;2023-03-13T11:56:46;99518.28;;;16.08;76.36
71504;BME280;59323;50.874;7.028;2023-03-13T11:59:40;99505.16;;;16.15;74.33
71504;BME280;59323;50.874;7.028;2023-03-13T12:02:24;99508.13;;;16.21;74.71
71504;BME280;59323;50.874;7.028;2023-03-13T12:04:56;99502.56;;;16.25;74.37
71504;BME280;59323;50.874;7.028;2023-03-13T12:07:29;99503.84;;;16.20;74.17
71504;BME280;59323;50.874;7.028;2023-03-13T12:10:00;99496.94;;;16.15;74.27
71504;BME280;59323;50.874;7.028;2023-03-13T12:17:43;99500.44;;;16.16;74.36
71504;BME280;59323;50.874;7.028;2023-03-13T12:20:23;99491.97;;;16.27;72.98
71504;BME280;59323;50.874;7.028;2023-03-13T12:26:03;99500.91;;;16.85;69.91
71504;BME280;59323;50.874;7.028;2023-03-13T12:28:38;99474.06;;;16.93;68.12
71504;BME280;59323;50.874;7.028;2023-03-13T12:31:26;99463.50;;;16.91;68.93
71504;BME280;59323;50.874;7.028;2023-03-13T12:39:48;99468.41;;;16.84;69.79
71504;BME280;59323;50.874;7.028;2023-03-13T12:42:35;99458.44;;;16.77;70.73
71504;BME280;59323;50.874;7.028;2023-03-13T12:45:06;99472.03;;;16.68;69.36
71504;BME280;59323;50.874;7.028;2023-03-13T12:47:33;99450.25;;;16.61;69.88
71504;BME280;59323;50.874;7.028;2023-03-13T12:50:21;99438.97;;;16.59;70.36
71504;BME280;59323;50.874;7.028;2023-03-13T12:56:17;99430.28;;;16.47;69.93
71504;BME280;59323;50.874;7.028;2023-03-13T12:58:52;99435.63;;;16.38;70.41
71504;BME280;59323;50.874;7.028;2023-03-13T13:03:52;99435.09;;;16.43;70.43
71504;BME280;59323;50.874;7.028;2023-03-13T13:06:19;99427.00;;;16.53;71.48
71504;BME280;59323;50.874;7.028;2023-03-13T13:09:02;99428.41;;;16.57;69.89
71504;BME280;59323;50.874;7.028;2023-03-13T13:11:34;99416.69;;;16.57;70.18
71504;BME280;59323;50.874;7.028;2023-03-13T13:16:43;99413.38;;;16.49;69.12
71504;BME280;59323;50.874;7.028;2023-03-13T13:24:59;99400.09;;;16.35;70.87
71504;BME280;59323;50.874;7.028;2023-03-13T13:29:58;99395.25;;;16.26;70.83
71504;BME280;59323;50.874;7.028;2023-03-13T13:32:39;99401.56;;;16.23;71.26
71504;BME280;59323;50.874;7.028;2023-03-13T13:35:22;99395.53;;;16.15;72.18
71504;BME280;59323;50.874;7.028;2023-03-13T13:37:48;99395.84;;;16.17;72.77
71504;BME280;59323;50.874;7.028;2023-03-13T13:40:29;99380.84;;;16.22;72.41
71504;BME280;59323;50.874;7.028;2023-03-13T13:42:57;99376.91;;;16.23;72.18
71504;BME280;59323;50.874;7.028;2023-03-13T13:47:50;99367.88;;;16.10;73.04
71504;BME280;59323;50.874;7.028;2023-03-13T13:50:20;99369.97;;;16.06;72.63
71504;BME280;59323;50.874;7.028;2023-03-13T13:52:48;99368.09;;;16.03;73.09
71504;BME280;59323;50.874;7.028;2023-03-13T13:58:11;99353.31;;;16.13;73.49
71504;BME280;59323;50.874;7.028;2023-03-13T14:00:40;99350.38;;;16.20;73.17
71504;BME280;59323;50.874;7.028;2023-03-13T14:03:25;99342.47;;;16.22;73.62
71504;BME280;59323;50.874;7.028;2023-03-13T14:05:59;99351.47;;;16.23;73.50
71504;BME280;59323;50.874;7.028;2023-03-13T14:08:35;99333.38;;;16.25;72.91
71504;BME280;59323;50.874;7.028;2023-03-13T14:11:19;99329.88;;;16.25;72.79
71504;BME280;59323;50.874;7.028;2023-03-13T14:14:12;99315.06;;;16.22;73.67
71504;BME280;59323;50.874;7.028;2023-03-13T14:16:38;99312.25;;;16.26;73.38
71504;BME280;59323;50.874;7.028;2023-03-13T14:19:20;99306.41;;;16.24;72.86
71504;BME280;59323;50.874;7.028;2023-03-13T14:21:46;99303.78;;;16.20;73.00
71504;BME280;59323;50.874;7.028;2023-03-13T14:24:15;99288.19;;;16.17;73.58